Time;durP1;ratioP1;P1;durP2;ratioP2;P2;SDS_P1;SDS_P2;PMS_P1;PMS_P2;Temp;Humidity;BMP_temperature;BMP_pressure;BME280_temperature;BME280_humidity;BME280_pressure;Samples;Min_cycle;Max_cycle;Signal;HPM_P1;HPM_P2
2022/06/10 00:00:09;;;;;;;6.30;3.30;;;11.60;99.90;;;;;;5043237;28;20075;-62
2022/06/10 00:02:43;;;;;;;8.98;3.35;;;11.50;99.90;;;;;;5043261;28;20050;-62
2022/06/10 00:05:17;;;;;;;8.95;3.05;;;11.50;99.90;;;;;;5043023;28;20100;-63
2022/06/10 00:07:43;;;;;;;7.70;3.10;;;11.60;99.90;;;;;;5043926;28;20044;-63
2022/06/10 00:10:11;;;;;;;4.43;2.50;;;11.50;99.90;;;;;;5043616;28;20596;-62
2022/06/10 00:12:38;;;;;;;6.63;2.75;;;11.60;99.90;;;;;;5041871;28;20049;-62
2022/06/10 00:15:08;;;;;;;9.80;3.28;;;11.60;99.90;;;;;;5043414;28;20049;-61
2022/06/10 00:17:36;;;;;;;7.40;3.92;;;11.60;99.90;;;;;;5039589;28;20112;-63
2022/06/10 00:20:09;;;;;;;9.50;3.50;;;11.60;99.90;;;;;;5040453;28;20041;-63
2022/06/10 00:22:35;;;;;;;9.98;3.90;;;11.60;99.90;;;;;;5030021;28;20073;-62
2022/06/10 00:25:09;;;;;;;9.02;3.17;;;11.60;99.90;;;;;;5028530;28;20037;-63
2022/06/10 00:27:35;;;;;;;10.90;3.05;;;11.60;99.90;;;;;;5030371;28;20041;-65
2022/06/10 00:30:01;;;;;;;;;;;11.50;99.90;;;;;;5030787;28;20473;-65
2022/06/10 00:32:29;;;;;;;10.07;3.80;;;11.50;99.90;;;;;;5009266;28;19921;-63
2022/06/10 00:34:55;;;;;;;;;;;11.50;99.90;;;;;;5010192;28;20068;-62
2022/06/10 00:37:21;;;;;;;9.68;3.45;;;11.50;99.90;;;;;;5009990;28;19927;-62
2022/06/10 00:39:49;;;;;;;;;;;11.40;99.90;;;;;;5010638;28;20038;-63
2022/06/10 00:42:15;;;;;;;8.93;3.90;;;11.50;99.90;;;;;;5041214;28;19924;-65
2022/06/10 00:44:44;;;;;;;;;;;11.40;99.90;;;;;;5030098;28;20125;-64
2022/06/10 00:47:18;;;;;;;7.40;4.10;;;11.40;99.90;;;;;;5037189;28;19933;-61
2022/06/10 00:49:50;;;;;;;17.67;5.85;;;11.30;99.90;;;;;;5029212;28;20125;-63
2022/06/10 00:52:27;;;;;;;8.77;5.40;;;11.30;99.90;;;;;;5029018;28;20127;-62
2022/06/10 00:54:54;;;;;;;9.38;5.30;;;11.30;99.90;;;;;;5029196;28;20486;-62
2022/06/10 00:57:31;;;;;;;12.85;5.40;;;11.30;99.90;;;;;;5029239;28;20056;-61
2022/06/10 01:00:05;;;;;;;10.13;4.75;;;11.30;99.90;;;;;;5029068;28;20038;-62
2022/06/10 01:02:33;;;;;;;13.05;5.35;;;11.30;99.90;;;;;;5045912;28;20674;-63
2022/06/10 01:05:00;;;;;;;11.95;5.63;;;11.30;99.90;;;;;;5049130;28;20485;-61
2022/06/10 01:07:36;;;;;;;11.98;5.88;;;11.30;99.90;;;;;;5048517;28;20053;-62
2022/06/10 01:10:06;;;;;;;7.97;4.55;;;11.20;99.90;;;;;;5048722;28;20524;-61
2022/06/10 01:12:46;;;;;;;7.72;4.50;;;11.30;99.90;;;;;;5048944;28;20053;-60
2022/06/10 01:15:36;;;;;;;6.72;4.15;;;11.30;99.90;;;;;;5048498;28;20560;-61
2022/06/10 01:18:33;;;;;;;9.02;4.97;;;11.30;99.90;;;;;;5046884;28;20448;-61
2022/06/10 01:21:18;;;;;;;11.40;5.00;;;11.20;99.90;;;;;;5042710;28;20076;-62
2022/06/10 01:24:17;;;;;;;7.43;4.47;;;11.30;99.90;;;;;;5048384;28;20071;-61
2022/06/10 01:29:59;;;;;;;10.65;4.10;;;11.30;99.90;;;;;;5047417;28;20045;-60
2022/06/10 01:32:36;;;;;;;6.93;3.83;;;11.30;99.90;;;;;;5047791;28;20055;-62
2022/06/10 01:35:10;;;;;;;6.70;4.22;;;11.30;99.90;;;;;;5048943;28;20099;-61
2022/06/10 01:38:13;;;;;;;7.88;4.18;;;11.20;99.90;;;;;;5049510;28;20408;-61
2022/06/10 01:40:57;;;;;;;12.38;4.72;;;11.20;99.90;;;;;;5051351;28;20043;-61
2022/06/10 01:43:39;;;;;;;10.73;4.50;;;11.20;99.90;;;;;;5039312;28;20045;-62
2022/06/10 01:46:25;;;;;;;9.63;4.05;;;11.20;99.90;;;;;;5043215;28;20106;-62
2022/06/10 01:49:10;;;;;;;9.93;4.47;;;11.20;99.90;;;;;;5047578;28;20072;-62
2022/06/10 01:52:09;;;;;;;10.70;4.68;;;11.20;99.90;;;;;;5047620;28;20559;-62
2022/06/10 01:54:46;;;;;;;12.80;7.03;;;11.10;99.90;;;;;;5048320;28;20052;-61
2022/06/10 01:57:22;;;;;;;8.73;6.65;;;11.00;99.90;;;;;;5034087;28;20048;-62
2022/06/10 02:00:20;;;;;;;17.05;7.10;;;11.00;99.90;;;;;;5047730;28;20045;-61
2022/06/10 02:02:58;;;;;;;10.23;5.43;;;11.00;99.90;;;;;;5027924;28;20203;-62
2022/06/10 02:05:28;;;;;;;12.30;7.22;;;11.00;99.90;;;;;;5027165;28;20490;-62
2022/06/10 02:08:11;;;;;;;12.45;7.60;;;11.00;99.90;;;;;;5028281;28;20664;-61
2022/06/10 02:10:48;;;;;;;13.18;7.72;;;10.90;99.90;;;;;;5027751;28;20049;-61
2022/06/10 02:13:20;;;;;;;16.05;7.95;;;10.90;99.90;;;;;;5028555;28;20050;-62
2022/06/10 02:15:52;;;;;;;15.73;8.00;;;10.80;99.90;;;;;;5028329;28;20121;-62
2022/06/10 02:18:25;;;;;;;15.52;8.82;;;10.80;99.90;;;;;;5028098;28;20171;-60
2022/06/10 02:20:57;;;;;;;21.58;8.95;;;10.80;99.90;;;;;;5032209;28;20053;-63
2022/06/10 02:23:30;;;;;;;13.07;7.38;;;10.80;99.90;;;;;;5033926;28;20444;-61
2022/06/10 02:25:58;;;;;;;16.88;8.57;;;10.70;99.90;;;;;;5027265;28;20098;-60
2022/06/10 02:28:33;;;;;;;13.20;7.72;;;10.70;99.90;;;;;;5028126;28;20068;-62
2022/06/10 02:31:12;;;;;;;17.65;9.48;;;10.70;99.90;;;;;;5026330;28;20037;-61
2022/06/10 02:33:38;;;;;;;18.40;7.97;;;10.70;99.90;;;;;;5026092;28;20068;-61
2022/06/10 02:36:20;;;;;;;15.63;8.55;;;10.70;99.90;;;;;;5027496;28;20043;-62
2022/06/10 02:39:21;;;;;;;20.08;8.30;;;10.70;99.90;;;;;;5027114;28;20038;-61
2022/06/10 02:42:19;;;;;;;18.77;9.35;;;10.70;99.90;;;;;;5019395;28;20080;-61
2022/06/10 02:45:20;;;;;;;14.73;8.20;;;10.60;99.90;;;;;;5008160;28;20395;-61
2022/06/10 02:48:07;;;;;;;13.38;7.68;;;10.60;99.90;;;;;;5004904;28;20060;-62
2022/06/10 02:50:33;;;;;;;12.35;7.82;;;10.60;99.90;;;;;;5034774;28;20073;-62
2022/06/10 02:52:59;;;;;;;;;;;10.60;99.90;;;;;;5028207;28;20065;-62
2022/06/10 02:55:26;;;;;;;14.50;7.53;;;10.60;99.90;;;;;;5027041;28;20015;-61
2022/06/10 03:01:11;;;;;;;13.43;7.10;;;10.70;99.90;;;;;;5026875;28;20041;-62
2022/06/10 03:03:56;;;;;;;13.98;7.97;;;10.70;99.90;;;;;;5027097;28;20071;-61
2022/06/10 03:06:38;;;;;;;12.02;6.32;;;10.70;99.90;;;;;;5026571;28;20497;-61
2022/06/10 03:09:22;;;;;;;13.60;6.35;;;10.70;99.90;;;;;;5027836;28;20046;-62
2022/06/10 03:12:10;;;;;;;10.13;6.53;;;10.70;99.90;;;;;;5026865;28;20048;-62
2022/06/10 03:15:13;;;;;;;12.30;6.43;;;10.80;99.90;;;;;;5026487;28;20045;-62
2022/06/10 03:17:57;;;;;;;14.68;6.68;;;10.80;99.90;;;;;;5030079;28;20051;-62
2022/06/10 03:20:23;;;;;;;12.77;6.88;;;10.70;99.90;;;;;;5031635;28;20695;-62
2022/06/10 03:23:04;;;;;;;;;;;10.70;99.90;;;;;;5027179;28;20103;-62
2022/06/10 03:25:52;;;;;;;11.68;6.28;;;10.70;99.90;;;;;;5007051;28;19921;-62
2022/06/10 03:28:42;;;;;;;11.93;6.40;;;10.70;99.90;;;;;;5009660;28;20091;-62
2022/06/10 03:31:16;;;;;;;10.60;7.53;;;10.70;99.90;;;;;;5025980;28;20044;-61
2022/06/10 03:34:02;;;;;;;13.85;8.18;;;10.60;99.90;;;;;;5027215;28;20045;-62
2022/06/10 03:36:28;;;;;;;16.27;8.55;;;10.60;99.90;;;;;;5026664;28;20060;-62
2022/06/10 03:38:54;;;;;;;15.68;8.02;;;10.80;99.90;;;;;;5027149;28;20051;-62
2022/06/10 03:41:28;;;;;;;;;;;10.90;99.90;;;;;;5027365;28;20056;-61
2022/06/10 03:43:55;;;;;;;11.73;7.20;;;11.00;99.90;;;;;;5025710;28;19921;-62
2022/06/10 03:46:23;;;;;;;19.88;8.75;;;11.00;99.90;;;;;;5026483;28;20136;-62
2022/06/10 03:48:50;;;;;;;12.65;8.98;;;11.10;99.90;;;;;;5034889;28;20502;-62
2022/06/10 03:51:17;;;;;;;15.18;10.02;;;11.30;99.90;;;;;;5026275;28;20152;-62
2022/06/10 03:53:44;;;;;;;18.98;10.15;;;11.30;99.90;;;;;;5028922;28;20042;-61
2022/06/10 03:56:11;;;;;;;15.70;9.07;;;11.30;99.90;;;;;;5029707;28;20049;-62
2022/06/10 03:58:40;;;;;;;16.10;8.77;;;11.30;99.90;;;;;;5030761;28;20046;-62
2022/06/10 04:01:06;;;;;;;16.25;8.65;;;11.30;99.90;;;;;;5029675;28;20116;-62
2022/06/10 04:03:32;;;;;;;14.90;8.63;;;11.40;99.90;;;;;;5030744;28;20400;-62
2022/06/10 04:05:58;;;;;;;;;;;11.40;99.90;;;;;;5030779;28;20048;-62
2022/06/10 04:08:24;;;;;;;15.95;8.88;;;11.40;99.90;;;;;;5030504;28;19948;-61
2022/06/10 04:10:49;;;;;;;;;;;11.40;99.90;;;;;;5030782;28;20072;-62
2022/06/10 04:13:17;;;;;;;13.82;7.85;;;11.40;99.90;;;;;;5029834;28;20012;-62
2022/06/10 04:15:44;;;;;;;12.35;8.43;;;11.50;99.90;;;;;;5030546;28;20060;-62
2022/06/10 04:18:10;;;;;;;15.88;9.23;;;11.60;99.90;;;;;;5036951;28;20040;-61
2022/06/10 04:20:38;;;;;;;14.85;8.68;;;11.70;99.90;;;;;;5030616;28;20049;-62
2022/06/10 04:23:05;;;;;;;16.08;9.90;;;11.80;99.90;;;;;;5030144;28;20587;-60
2022/06/10 04:25:32;;;;;;;18.05;9.00;;;11.80;99.90;;;;;;5028821;28;20045;-62
2022/06/10 04:27:59;;;;;;;15.57;9.23;;;11.90;99.90;;;;;;5024827;28;20555;-61
2022/06/10 04:30:26;;;;;;;17.88;8.48;;;12.10;99.90;;;;;;5026260;28;20048;-62
2022/06/10 04:32:52;;;;;;;12.15;7.22;;;12.80;99.90;;;;;;5028934;28;20823;-60
2022/06/10 04:35:18;;;;;;;;;;;13.20;99.90;;;;;;5030017;28;20041;-60
2022/06/10 04:37:45;;;;;;;12.10;7.28;;;13.60;99.90;;;;;;5028798;28;19917;-61
2022/06/10 04:40:16;;;;;;;14.10;6.45;;;13.40;99.90;;;;;;5025772;28;20498;-62
2022/06/10 04:42:43;;;;;;;12.05;7.30;;;13.40;99.90;;;;;;5028965;28;20052;-61
2022/06/10 04:45:10;;;;;;;13.38;7.25;;;13.50;99.90;;;;;;5028016;28;20041;-61
2022/06/10 04:47:35;;;;;;;14.93;7.55;;;13.40;99.90;;;;;;5023005;28;20041;-62
2022/06/10 04:50:02;;;;;;;;;;;13.30;99.90;;;;;;5029076;28;20393;-60
2022/06/10 04:52:28;;;;;;;9.20;5.63;;;13.30;99.90;;;;;;5028800;28;19927;-62
2022/06/10 04:54:54;;;;;;;9.65;5.15;;;13.70;99.90;;;;;;5021215;28;20049;-62
2022/06/10 04:57:20;;;;;;;10.02;5.00;;;14.00;99.90;;;;;;5029141;28;20037;-62
2022/06/10 04:59:46;;;;;;;7.93;4.53;;;14.00;99.90;;;;;;5027437;28;20048;-64
2022/06/10 05:02:12;;;;;;;;;;;14.00;99.90;;;;;;5022149;28;20045;-65
2022/06/10 05:04:38;;;;;;;11.98;5.70;;;13.90;99.90;;;;;;5028623;28;19921;-61
2022/06/10 05:07:03;;;;;;;;;;;13.80;99.90;;;;;;5019387;28;20120;-60
2022/06/10 05:09:29;;;;;;;9.20;5.10;;;13.70;99.90;;;;;;5028499;28;19925;-61
2022/06/10 05:11:54;;;;;;;;;;;13.70;99.90;;;;;;5026373;28;20045;-62
2022/06/10 05:14:20;;;;;;;15.45;5.32;;;13.70;99.90;;;;;;5028225;28;19916;-62
2022/06/10 05:16:46;;;;;;;9.13;5.00;;;13.70;99.90;;;;;;5028549;28;20052;-61
2022/06/10 05:19:12;;;;;;;;;;;13.70;99.90;;;;;;5036968;28;20034;-61
2022/06/10 05:21:38;;;;;;;16.92;4.68;;;13.80;99.90;;;;;;5029127;28;20047;-61
2022/06/10 05:24:03;;;;;;;;;;;13.90;99.90;;;;;;5028442;28;20045;-61
2022/06/10 05:26:29;;;;;;;10.32;4.63;;;14.10;99.90;;;;;;5028149;28;19921;-61
2022/06/10 05:28:56;;;;;;;8.18;3.92;;;14.30;99.90;;;;;;5027586;28;20076;-61
2022/06/10 05:31:22;;;;;;;9.43;4.07;;;14.80;99.90;;;;;;5027172;28;20049;-61
2022/06/10 05:36:32;;;;;;;6.90;2.45;;;15.20;99.90;;;;;;5028076;28;20282;-62
2022/06/10 05:38:57;;;;;;;;;;;15.10;99.90;;;;;;5027828;28;20559;-61
2022/06/10 05:44:09;;;;;;;9.10;2.83;;;14.90;99.90;;;;;;5024864;28;20489;-63
2022/06/10 05:46:35;;;;;;;8.70;3.13;;;14.80;99.90;;;;;;5027216;28;20195;-61
2022/06/10 05:49:01;;;;;;;;;;;14.80;99.90;;;;;;5035429;28;20056;-63
2022/06/10 05:51:26;;;;;;;8.98;3.33;;;14.80;99.90;;;;;;5035725;28;20003;-62
2022/06/10 05:53:52;;;;;;;;;;;14.80;99.90;;;;;;5025864;28;20533;-62
2022/06/10 05:56:18;;;;;;;9.07;3.78;;;14.80;99.90;;;;;;5027996;28;19928;-61
2022/06/10 05:58:43;;;;;;;;;;;14.90;99.90;;;;;;5028239;28;20509;-62
2022/06/10 06:01:09;;;;;;;16.10;4.00;;;14.90;99.90;;;;;;5026906;28;19984;-61
2022/06/10 06:03:34;;;;;;;;;;;15.00;99.90;;;;;;5025782;28;20473;-62
2022/06/10 06:06:00;;;;;;;13.38;3.83;;;15.00;99.90;;;;;;5025133;28;19921;-62
2022/06/10 06:08:26;;;;;;;;;;;15.10;99.90;;;;;;5025957;28;20072;-61
2022/06/10 06:10:51;;;;;;;9.95;3.40;;;15.10;99.90;;;;;;5027316;28;19970;-62
2022/06/10 06:13:17;;;;;;;;;;;15.20;99.90;;;;;;5027190;28;20045;-62
2022/06/10 06:15:43;;;;;;;9.10;4.25;;;15.40;99.90;;;;;;5026811;28;19999;-61
2022/06/10 06:18:10;;;;;;;15.05;4.15;;;15.60;99.90;;;;;;5025677;28;20049;-62
2022/06/10 06:20:36;;;;;;;17.58;5.30;;;15.80;99.90;;;;;;5025118;28;20418;-62
2022/06/10 06:23:02;;;;;;;;;;;15.70;99.90;;;;;;5028441;28;20045;-60
2022/06/10 06:25:29;;;;;;;14.17;3.97;;;15.70;99.90;;;;;;5025517;28;19924;-61
2022/06/10 06:27:55;;;;;;;12.32;3.75;;;15.80;99.90;;;;;;5027876;28;20136;-61
2022/06/10 06:30:30;;;;;;;;;;;15.80;99.90;;;;;;5026074;28;20132;-61
2022/06/10 06:32:57;;;;;;;14.05;3.70;;;16.00;99.90;;;;;;5022799;28;19925;-61
2022/06/10 06:35:23;;;;;;;10.57;3.90;;;16.10;99.90;;;;;;5023082;28;20077;-62
2022/06/10 06:37:49;;;;;;;11.93;3.42;;;16.20;99.90;;;;;;5022700;28;20044;-62
2022/06/10 06:40:14;;;;;;;;;;;16.20;99.90;;;;;;5027113;28;20030;-62
2022/06/10 06:42:40;;;;;;;10.57;4.35;;;16.10;99.90;;;;;;5025332;28;19955;-62
2022/06/10 06:45:06;;;;;;;;;;;16.30;99.90;;;;;;5027897;28;20172;-60
2022/06/10 06:47:33;;;;;;;18.05;3.80;;;16.50;99.40;;;;;;5027154;28;20399;-61
2022/06/10 06:49:58;;;;;;;15.13;3.83;;;16.50;99.00;;;;;;5027194;28;20034;-62
2022/06/10 06:52:24;;;;;;;;;;;16.90;98.80;;;;;;5027507;28;20041;-62
2022/06/10 06:54:50;;;;;;;7.47;3.15;;;16.80;98.40;;;;;;5027871;28;19970;-62
2022/06/10 06:57:18;;;;;;;10.43;2.92;;;16.60;99.00;;;;;;5028622;28;20060;-61
2022/06/10 06:59:43;;;;;;;13.43;3.65;;;16.60;98.60;;;;;;5026525;28;20045;-62
2022/06/10 07:02:10;;;;;;;;;;;16.40;98.70;;;;;;5025199;28;20052;-62
2022/06/10 07:04:36;;;;;;;10.82;3.72;;;16.20;98.80;;;;;;5027452;28;19927;-62
2022/06/10 07:07:02;;;;;;;13.63;2.78;;;16.30;98.40;;;;;;5026176;28;20144;-62
2022/06/10 07:09:29;;;;;;;;;;;16.50;98.60;;;;;;5024989;28;20094;-62
2022/06/10 07:11:55;;;;;;;13.93;3.70;;;16.80;98.60;;;;;;5026999;28;19921;-62
2022/06/10 07:14:22;;;;;;;;;;;17.40;97.30;;;;;;5034646;28;20429;-62
2022/06/10 07:16:53;;;;;;;11.10;3.00;;;17.90;95.20;;;;;;5027081;28;20348;-62
2022/06/10 07:19:20;;;;;;;8.48;2.85;;;18.10;94.60;;;;;;5031896;28;20044;-62
2022/06/10 07:21:46;;;;;;;14.85;2.95;;;17.90;94.90;;;;;;5027704;28;20041;-62
2022/06/10 07:24:11;;;;;;;;;;;18.10;95.80;;;;;;5027833;28;20402;-62
2022/06/10 07:26:37;;;;;;;10.98;2.88;;;18.00;94.60;;;;;;5026996;28;20023;-61
2022/06/10 07:29:03;;;;;;;19.95;2.97;;;17.70;95.90;;;;;;5030275;28;20060;-62
2022/06/10 07:31:29;;;;;;;;;;;17.60;96.50;;;;;;5030519;28;20065;-62
2022/06/10 07:33:55;;;;;;;8.07;2.50;;;17.80;96.20;;;;;;5031054;28;20430;-62
2022/06/10 07:36:20;;;;;;;13.80;2.90;;;17.90;96.00;;;;;;5030997;28;20144;-62
2022/06/10 07:38:46;;;;;;;10.95;2.80;;;18.00;95.20;;;;;;5024814;28;20381;-61
2022/06/10 07:43:56;;;;;;;8.73;2.58;;;18.10;95.50;;;;;;5030416;28;20422;-62
2022/06/10 07:46:23;;;;;;;8.90;2.90;;;18.90;94.10;;;;;;5030670;28;20048;-61
2022/06/10 07:48:49;;;;;;;8.52;2.53;;;19.50;92.60;;;;;;5030513;28;20160;-62
2022/06/10 07:51:16;;;;;;;7.78;2.63;;;19.50;92.80;;;;;;5030321;28;20120;-61
2022/06/10 07:53:42;;;;;;;14.40;2.40;;;19.50;93.30;;;;;;5028809;28;20284;-63
2022/06/10 07:56:09;;;;;;;9.63;2.13;;;19.40;92.70;;;;;;5030279;28;20045;-62
2022/06/10 07:58:35;;;;;;;9.27;1.77;;;19.70;93.20;;;;;;5028502;28;20502;-62
2022/06/10 08:01:01;;;;;;;10.25;2.60;;;20.30;91.60;;;;;;5034762;28;20045;-62
2022/06/10 08:03:28;;;;;;;9.43;2.15;;;20.60;91.00;;;;;;5056375;28;20483;-62
2022/06/10 08:05:53;;;;;;;5.65;1.80;;;21.20;90.40;;;;;;5057563;28;20067;-61
2022/06/10 08:08:20;;;;;;;9.18;2.25;;;22.00;85.00;;;;;;5056047;28;20401;-62
2022/06/10 08:10:46;;;;;;;8.68;1.75;;;22.00;84.10;;;;;;5061340;28;20508;-63
2022/06/10 08:13:13;;;;;;;7.45;2.22;;;22.00;88.20;;;;;;5056591;28;20069;-62
2022/06/10 08:15:39;;;;;;;15.07;2.25;;;22.00;84.10;;;;;;5067851;28;20167;-62
2022/06/10 08:18:06;;;;;;;8.95;1.88;;;22.40;82.80;;;;;;5056743;28;20129;-62
2022/06/10 08:23:19;;;;;;;7.55;1.83;;;21.00;85.50;;;;;;5045637;28;20032;-62
2022/06/10 08:25:45;;;;;;;6.72;1.98;;;21.30;86.50;;;;;;5044163;28;20040;-62
2022/06/10 08:28:11;;;;;;;4.53;1.60;;;21.60;86.30;;;;;;5055254;28;20048;-62
2022/06/10 08:30:36;;;;;;;9.02;1.98;;;21.30;83.60;;;;;;5065738;28;20111;-63
2022/06/10 08:33:06;;;;;;;9.20;1.35;;;20.60;84.60;;;;;;5057968;28;20060;-62
2022/06/10 08:35:33;;;;;;;6.43;1.48;;;21.40;84.70;;;;;;5047863;28;20041;-63
2022/06/10 08:38:00;;;;;;;6.13;1.33;;;21.90;80.80;;;;;;5051212;28;20060;-62
2022/06/10 08:40:48;;;;;;;5.20;1.23;;;22.30;81.70;;;;;;5058008;28;20076;-63
2022/06/10 08:43:28;;;;;;;9.90;1.75;;;22.20;83.30;;;;;;5055610;28;20036;-63
2022/06/10 08:46:18;;;;;;;7.95;1.73;;;22.10;82.70;;;;;;5050017;28;20041;-63
2022/06/10 08:49:09;;;;;;;6.00;1.35;;;21.50;85.40;;;;;;5056608;28;20029;-61
2022/06/10 08:51:47;;;;;;;7.32;1.30;;;20.70;85.20;;;;;;5058557;28;20043;-63
2022/06/10 08:54:16;;;;;;;7.45;1.65;;;20.00;87.80;;;;;;5052886;28;20064;-63
2022/06/10 08:56:46;;;;;;;5.40;1.30;;;19.40;90.30;;;;;;5050356;28;20138;-63
2022/06/10 08:59:33;;;;;;;7.72;1.95;;;18.90;90.30;;;;;;5048800;28;20029;-62
2022/06/10 09:02:26;;;;;;;7.20;1.73;;;19.10;90.70;;;;;;5049752;28;20103;-63
2022/06/10 09:04:56;;;;;;;6.80;1.70;;;19.80;90.30;;;;;;5046485;28;20041;-62
2022/06/10 09:08:01;;;;;;;11.70;2.17;;;19.80;90.40;;;;;;5048015;28;20052;-63
2022/06/10 09:10:57;;;;;;;8.70;1.33;;;19.50;91.20;;;;;;5039643;28;20060;-62
2022/06/10 09:13:57;;;;;;;6.10;1.60;;;19.10;91.50;;;;;;5048853;28;20156;-62
2022/06/10 09:16:37;;;;;;;4.45;1.40;;;19.10;91.90;;;;;;5023696;28;20587;-63
2022/06/10 09:19:36;;;;;;;8.70;1.77;;;19.00;92.70;;;;;;5042209;28;20033;-62
2022/06/10 09:22:35;;;;;;;5.18;1.65;;;18.90;92.90;;;;;;5036715;28;20033;-61
2022/06/10 09:25:27;;;;;;;7.38;1.70;;;18.60;93.30;;;;;;5037977;28;20045;-62
2022/06/10 09:27:58;;;;;;;4.32;0.90;;;18.60;93.60;;;;;;5048520;28;20071;-61
2022/06/10 09:30:39;;;;;;;8.15;1.80;;;18.60;94.00;;;;;;5048220;28;20041;-63
2022/06/10 09:33:18;;;;;;;6.95;1.45;;;18.90;94.10;;;;;;5049795;28;20048;-61
2022/06/10 09:36:12;;;;;;;4.13;1.27;;;19.00;93.30;;;;;;5048528;28;20043;-62
2022/06/10 09:42:18;;;;;;;7.75;1.23;;;18.70;92.30;;;;;;5056713;28;20037;-62
2022/06/10 09:45:14;;;;;;;6.45;1.15;;;18.60;93.80;;;;;;5060137;28;20059;-61
2022/06/10 09:47:52;;;;;;;11.75;2.42;;;18.50;93.30;;;;;;5030334;28;20071;-63
2022/06/10 09:50:36;;;;;;;6.90;1.42;;;18.50;94.20;;;;;;5046034;28;20033;-60
2022/06/10 09:53:41;;;;;;;9.23;1.70;;;18.60;94.00;;;;;;5052558;28;20174;-60
2022/06/10 09:56:21;;;;;;;8.65;1.83;;;18.60;94.90;;;;;;5048503;28;20036;-62
2022/06/10 09:59:12;;;;;;;9.90;1.48;;;18.50;92.90;;;;;;5059716;28;20398;-61
2022/06/10 10:01:46;;;;;;;12.50;1.50;;;18.50;93.60;;;;;;5054520;28;20041;-62
2022/06/10 10:04:45;;;;;;;4.40;1.10;;;18.50;93.30;;;;;;5056736;28;20075;-62
2022/06/10 10:07:41;;;;;;;5.75;1.35;;;18.90;92.70;;;;;;5051624;28;20124;-62
2022/06/10 10:10:31;;;;;;;5.38;1.30;;;19.00;91.60;;;;;;5031116;28;20033;-62
2022/06/10 10:13:11;;;;;;;5.93;1.30;;;18.80;91.30;;;;;;5055548;28;20086;-63
2022/06/10 10:15:42;;;;;;;7.45;1.45;;;19.00;91.30;;;;;;5054309;28;20409;-62
2022/06/10 10:18:29;;;;;;;6.15;1.83;;;19.20;88.90;;;;;;5044206;28;20037;-63
2022/06/10 10:21:14;;;;;;;5.95;1.23;;;19.50;89.20;;;;;;5043180;28;20471;-61
2022/06/10 10:23:41;;;;;;;3.42;1.25;;;19.80;90.60;;;;;;5054542;28;20044;-61
2022/06/10 10:26:29;;;;;;;2.95;1.00;;;20.00;89.80;;;;;;5049461;28;20079;-62
2022/06/10 10:29:11;;;;;;;5.90;1.17;;;20.00;89.40;;;;;;5047999;28;20626;-62
2022/06/10 10:31:44;;;;;;;6.03;1.58;;;20.00;89.50;;;;;;5052314;28;20045;-62
2022/06/10 10:34:19;;;;;;;9.30;1.42;;;20.00;88.40;;;;;;5047020;28;20041;-60
2022/06/10 10:36:52;;;;;;;1.58;0.73;;;19.80;88.60;;;;;;5046651;28;20040;-62
2022/06/10 10:39:49;;;;;;;6.55;1.35;;;19.60;90.40;;;;;;5042673;28;20090;-60
2022/06/10 10:42:19;;;;;;;7.95;1.48;;;19.40;90.60;;;;;;5050870;28;20053;-62
2022/06/10 10:44:50;;;;;;;5.40;1.27;;;19.20;91.90;;;;;;5058798;28;20044;-62
2022/06/10 10:47:18;;;;;;;3.28;1.25;;;19.30;91.50;;;;;;5050268;28;20045;-62
2022/06/10 10:49:49;;;;;;;4.95;1.10;;;19.30;91.30;;;;;;5046506;28;20036;-60
2022/06/10 10:52:37;;;;;;;3.22;1.10;;;19.40;92.10;;;;;;5046643;28;20037;-61
2022/06/10 10:55:18;;;;;;;4.65;1.20;;;19.20;91.70;;;;;;5047250;28;20036;-64
2022/06/10 10:58:06;;;;;;;8.25;1.98;;;19.50;91.40;;;;;;5045425;28;20039;-61
2022/06/10 11:00:41;;;;;;;6.50;1.30;;;19.30;91.20;;;;;;5039695;28;20037;-61
2022/06/10 11:03:23;;;;;;;7.30;1.20;;;19.40;91.70;;;;;;5037546;28;20086;-62
2022/06/10 11:05:52;;;;;;;3.20;1.10;;;19.20;91.40;;;;;;5035401;28;20049;-61
2022/06/10 11:08:24;;;;;;;5.63;1.50;;;19.10;92.30;;;;;;5038021;28;20094;-60
2022/06/10 11:10:51;;;;;;;8.30;1.10;;;19.10;92.90;;;;;;5044782;28;20040;-63
2022/06/10 11:13:25;;;;;;;6.15;1.75;;;19.10;92.70;;;;;;5054735;28;20041;-61
2022/06/10 11:15:51;;;;;;;5.38;1.30;;;19.30;92.40;;;;;;5053318;28;20044;-61
2022/06/10 11:18:16;;;;;;;;;;;19.20;92.30;;;;;;5052332;28;20032;-62
2022/06/10 11:20:42;;;;;;;4.93;1.02;;;19.20;91.80;;;;;;5048852;28;20526;-65
2022/06/10 11:23:10;;;;;;;;;;;19.20;92.00;;;;;;5047529;28;20045;-62
2022/06/10 11:25:35;;;;;;;6.38;1.33;;;19.10;91.80;;;;;;5046187;28;19916;-62
2022/06/10 11:28:03;;;;;;;;;;;19.10;92.80;;;;;;5048345;28;20044;-61
2022/06/10 11:30:42;;;;;;;7.72;1.85;;;19.10;93.00;;;;;;5046228;28;19923;-63
2022/06/10 11:33:24;;;;;;;5.97;1.25;;;19.10;93.30;;;;;;5051571;28;20036;-61
2022/06/10 11:36:20;;;;;;;7.72;1.45;;;19.10;93.70;;;;;;5044706;28;20116;-62
2022/06/10 11:38:53;;;;;;;5.18;1.05;;;19.20;94.20;;;;;;5056304;28;20190;-60
2022/06/10 11:41:23;;;;;;;11.32;2.00;;;19.30;93.30;;;;;;5052972;28;20044;-62
2022/06/10 11:43:54;;;;;;;5.78;1.10;;;19.60;91.70;;;;;;5050245;28;20067;-61
2022/06/10 11:46:38;;;;;;;4.88;1.58;;;19.90;91.50;;;;;;5067089;28;20381;-59
2022/06/10 11:49:28;;;;;;;7.35;1.10;;;19.80;91.10;;;;;;5041022;28;20124;-59
2022/06/10 11:52:15;;;;;;;5.70;1.13;;;19.60;91.30;;;;;;5035614;28;20036;-59
2022/06/10 11:55:03;;;;;;;6.40;1.50;;;19.40;90.90;;;;;;5057885;28;20044;-58
2022/06/10 12:00:55;;;;;;;2.92;0.90;;;19.70;91.30;;;;;;4991317;28;20121;-58
2022/06/10 12:03:33;;;;;;;5.07;0.85;;;19.90;91.40;;;;;;5046554;28;20041;-59
2022/06/10 12:06:01;;;;;;;3.55;0.90;;;20.00;91.90;;;;;;5046625;28;20076;-59
2022/06/10 12:08:47;;;;;;;4.22;1.05;;;19.90;91.00;;;;;;5046702;28;20037;-60
2022/06/10 12:11:25;;;;;;;7.45;2.05;;;19.90;91.70;;;;;;5046780;28;20047;-62
2022/06/10 12:14:12;;;;;;;12.18;1.17;;;19.60;92.40;;;;;;5045996;28;20095;-59
2022/06/10 12:16:39;;;;;;;4.40;1.55;;;19.40;92.60;;;;;;5050508;28;20045;-59
2022/06/10 12:19:12;;;;;;;7.78;1.20;;;19.40;93.20;;;;;;5051768;28;20087;-60
2022/06/10 12:21:37;;;;;;;3.33;0.98;;;19.20;93.10;;;;;;5051357;28;20559;-60
2022/06/10 12:24:11;;;;;;;;;;;19.30;93.60;;;;;;5032960;28;20053;-59
2022/06/10 12:26:53;;;;;;;4.20;0.98;;;19.20;93.80;;;;;;5029416;28;19931;-60
2022/06/10 12:29:43;;;;;;;3.78;0.90;;;19.30;93.00;;;;;;5056933;28;20063;-60
2022/06/10 12:32:37;;;;;;;9.50;1.52;;;19.30;92.30;;;;;;5055874;28;20036;-60
2022/06/10 12:35:18;;;;;;;7.07;1.55;;;19.40;92.30;;;;;;5054373;28;20040;-59
2022/06/10 12:37:49;;;;;;;6.80;1.30;;;19.40;92.30;;;;;;5063137;28;20037;-59
2022/06/10 12:40:25;;;;;;;6.18;1.20;;;19.40;92.80;;;;;;5049728;28;20508;-60
2022/06/10 12:42:58;;;;;;;6.40;1.35;;;19.20;92.70;;;;;;5049448;28;20033;-61
2022/06/10 12:45:30;;;;;;;6.05;0.95;;;19.20;93.10;;;;;;5048643;28;20045;-62
2022/06/10 12:47:59;;;;;;;5.53;1.20;;;19.30;92.90;;;;;;5041513;28;20052;-61
2022/06/10 12:50:29;;;;;;;7.38;1.27;;;19.40;93.30;;;;;;5055931;28;20453;-61
2022/06/10 12:53:28;;;;;;;6.22;1.58;;;19.40;93.80;;;;;;5049505;28;20072;-62
2022/06/10 12:55:56;;;;;;;5.25;1.40;;;19.40;93.40;;;;;;5049610;28;20033;-61
2022/06/10 12:58:37;;;;;;;6.10;1.30;;;19.50;93.10;;;;;;5042072;28;20040;-61
2022/06/10 13:01:27;;;;;;;4.05;1.10;;;19.50;93.60;;;;;;5028947;28;20030;-61
2022/06/10 13:03:56;;;;;;;6.60;1.00;;;19.50;93.60;;;;;;5039939;28;20041;-61
2022/06/10 13:06:48;;;;;;;2.75;0.90;;;19.50;93.30;;;;;;5049070;28;20049;-62
2022/06/10 13:09:15;;;;;;;7.53;1.25;;;19.40;93.40;;;;;;5048752;28;20041;-61
2022/06/10 13:11:57;;;;;;;5.82;1.30;;;19.70;93.20;;;;;;5048876;28;20520;-60
2022/06/10 13:14:35;;;;;;;4.05;1.02;;;19.90;93.40;;;;;;5047095;28;20098;-61
2022/06/10 13:17:15;;;;;;;3.05;0.93;;;19.90;93.40;;;;;;5045426;28;20041;-62
2022/06/10 13:19:53;;;;;;;4.18;1.40;;;20.00;93.90;;;;;;5044809;28;20071;-62
2022/06/10 13:22:22;;;;;;;2.33;1.02;;;19.90;94.30;;;;;;5037352;28;20041;-61
2022/06/10 13:24:54;;;;;;;6.95;1.13;;;19.80;93.70;;;;;;5041527;28;20045;-60
2022/06/10 13:27:34;;;;;;;6.40;1.30;;;19.70;93.80;;;;;;5046016;28;20493;-62
2022/06/10 13:30:17;;;;;;;5.80;1.33;;;19.50;94.70;;;;;;5046037;28;20045;-62
2022/06/10 13:33:00;;;;;;;3.20;0.93;;;19.30;95.00;;;;;;5046765;28;20110;-60
2022/06/10 13:35:34;;;;;;;8.27;1.38;;;19.20;94.90;;;;;;5048468;28;20072;-62
2022/06/10 13:38:17;;;;;;;6.22;1.10;;;19.20;95.50;;;;;;5048786;28;20045;-61
2022/06/10 13:41:48;;;;;;;6.13;1.00;;;19.30;95.20;;;;;;5028125;28;20095;-61
2022/06/10 13:43:41;;;;;;;4.45;1.10;;;19.40;95.70;;;;;;5032039;28;20051;-61
2022/06/10 13:46:17;;;;;;;6.72;1.25;;;19.50;95.30;;;;;;5063423;28;20053;-61
2022/06/10 13:48:43;;;;;;;4.93;1.50;;;19.40;95.70;;;;;;5047409;28;20388;-62
2022/06/10 13:51:34;;;;;;;4.40;1.05;;;19.50;95.80;;;;;;5042614;28;20413;-61